createdAt,value
2019-01-10T00:11:55.912Z,5.60
2019-01-10T00:18:47.173Z,8.00
2019-01-10T00:29:21.350Z,8.10
2019-01-10T00:46:58.127Z,7.10
2019-01-10T00:51:40.474Z,7.00
2019-01-10T15:48:51.138Z,2.70
2019-01-10T15:49:52.220Z,11.90
2019-01-10T15:51:46.182Z,4.30
2019-01-10T15:52:46.223Z,4.50
2019-01-10T15:54:38.989Z,4.20
2019-01-10T15:55:38.386Z,3.70
2019-01-10T15:57:32.162Z,4.00
2019-01-10T15:58:30.559Z,3.90
2019-01-10T16:00:25.109Z,3.70
2019-01-10T16:01:24.204Z,3.40
2019-01-10T16:03:20.801Z,3.60
2019-01-10T16:04:18.722Z,4.10
2019-01-10T16:06:13.479Z,3.50
2019-01-10T16:07:11.720Z,3.50
2019-01-10T16:09:08.230Z,3.70
2019-01-10T16:10:06.486Z,3.70
2019-01-10T16:12:00.825Z,4.20
2019-01-10T16:12:59.753Z,3.40
2019-01-10T16:14:53.807Z,3.30
2019-01-10T16:15:54.323Z,3.50
2019-01-10T16:17:59.678Z,3.50
2019-01-10T16:18:59.349Z,3.30
2019-01-10T16:20:52.521Z,3.30
2019-01-10T16:21:52.395Z,3.60
2019-01-10T16:23:57.045Z,3.10
2019-01-10T16:24:57.514Z,3.50
2019-01-10T16:26:50.497Z,3.30
2019-01-10T16:27:50.538Z,3.40
2019-01-10T16:29:55.925Z,3.70
2019-01-10T16:30:54.506Z,3.30
2019-01-10T16:32:49.125Z,3.60
2019-01-10T16:33:48.584Z,3.50
2019-01-10T16:35:41.185Z,3.70
2019-01-10T16:36:40.414Z,3.10
2019-01-10T16:37:41.486Z,3.50
2019-01-10T16:38:41.554Z,3.70
2019-01-10T16:39:41.420Z,3.60
2019-01-10T16:40:41.546Z,3.60
2019-01-10T16:41:40.096Z,3.50
2019-01-10T16:42:41.367Z,3.20
2019-01-10T16:43:39.520Z,3.70
2019-01-10T16:44:40.542Z,2.90
2019-01-10T16:45:41.143Z,3.10
2019-01-10T16:46:39.100Z,3.20
2019-01-10T16:47:40.713Z,3.20
2019-01-10T16:48:38.858Z,3.50
2019-01-10T16:49:38.774Z,2.50
2019-01-10T16:50:38.757Z,2.60
2019-01-10T16:51:38.697Z,2.90
2019-01-10T16:52:38.633Z,2.40
2019-01-10T16:53:38.580Z,2.70
2019-01-10T16:54:38.534Z,3.00
2019-01-10T16:55:38.593Z,3.10
2019-01-10T16:56:38.468Z,3.10
2019-01-10T16:57:38.426Z,3.10
2019-01-10T16:58:38.450Z,3.00
2019-01-10T16:59:38.367Z,2.90
2019-01-10T17:00:38.272Z,2.50
2019-01-10T17:01:38.216Z,2.80
2019-01-10T17:02:38.157Z,2.60
2019-01-10T17:03:38.122Z,3.00
2019-01-10T17:04:38.090Z,2.90
2019-01-10T17:05:38.044Z,2.60
2019-01-10T17:06:37.999Z,2.60
2019-01-10T17:07:37.934Z,2.00
2019-01-10T17:08:37.897Z,2.50
2019-01-10T17:09:37.848Z,2.20
2019-01-10T17:10:37.862Z,2.20
2019-01-10T17:11:37.841Z,2.20
2019-01-10T17:12:37.729Z,2.20
2019-01-10T17:13:37.660Z,2.40
2019-01-10T17:14:37.610Z,2.10
2019-01-10T17:15:37.585Z,2.20
2019-01-10T17:16:37.541Z,2.10
2019-01-10T17:17:37.777Z,2.00
2019-01-10T17:18:37.445Z,2.20
2019-01-10T17:19:37.392Z,2.30
2019-01-10T17:20:37.339Z,2.10
2019-01-10T17:21:37.270Z,2.00
2019-01-10T17:22:37.234Z,1.90
2019-01-10T17:23:37.194Z,2.20
2019-01-10T17:24:37.147Z,2.10
2019-01-10T17:25:37.181Z,2.20
2019-01-10T17:26:37.053Z,2.50
2019-01-10T17:27:37.027Z,2.30
2019-01-10T17:28:36.945Z,2.20
2019-01-10T17:29:36.944Z,2.50
2019-01-10T17:30:36.875Z,2.40
2019-01-10T17:31:36.889Z,2.60
2019-01-10T17:32:36.768Z,2.50
2019-01-10T17:33:36.716Z,2.90
2019-01-10T17:34:36.710Z,3.00
2019-01-10T17:35:36.619Z,3.00
2019-01-10T17:36:36.596Z,2.90
2019-01-10T17:37:36.554Z,2.60
2019-01-10T17:38:36.486Z,2.60
2019-01-10T17:39:36.447Z,2.60
2019-01-10T17:40:36.423Z,2.70
2019-01-10T17:41:36.345Z,2.40
2019-01-10T17:42:36.303Z,2.40
2019-01-10T17:43:36.244Z,2.60
2019-01-10T17:44:36.204Z,2.80
2019-01-10T17:45:36.154Z,2.20
2019-01-10T17:46:36.149Z,2.50
2019-01-10T17:47:36.116Z,2.60
2019-01-10T17:48:36.060Z,2.30
2019-01-10T17:49:36.025Z,2.30
2019-01-10T17:50:35.944Z,2.10
2019-01-10T17:51:35.885Z,2.30
2019-01-10T17:52:35.872Z,2.50
2019-01-10T17:53:35.798Z,2.50
2019-01-10T17:54:35.743Z,2.30
2019-01-10T17:55:35.718Z,2.20
2019-01-10T17:56:35.671Z,2.20
2019-01-10T17:57:35.617Z,2.30
2019-01-10T17:58:35.547Z,2.40
2019-01-10T17:59:35.541Z,2.80
2019-01-10T18:00:35.477Z,2.60
2019-01-10T18:01:35.425Z,2.60
2019-01-10T18:02:35.391Z,2.60
2019-01-10T18:03:40.072Z,2.30
2019-01-10T18:04:35.305Z,2.80
2019-01-10T18:05:35.235Z,2.60
2019-01-10T18:06:35.197Z,2.70
2019-01-10T18:07:35.151Z,3.00
2019-01-10T18:08:35.095Z,2.40
2019-01-10T18:09:35.031Z,2.60
2019-01-10T18:10:35.024Z,3.00
2019-01-10T18:11:34.974Z,3.10
2019-01-10T18:12:34.905Z,3.10
2019-01-10T18:13:34.887Z,2.90
2019-01-10T18:14:34.837Z,3.20
2019-01-10T18:15:34.848Z,2.90
2019-01-10T18:16:34.852Z,2.90
2019-01-10T18:17:34.740Z,3.20
2019-01-10T18:18:34.653Z,3.00
2019-01-10T18:19:34.573Z,3.80
2019-01-10T18:20:35.980Z,3.60
2019-01-10T18:21:34.565Z,3.50
2019-01-10T18:22:34.451Z,3.90
2019-01-10T18:23:34.408Z,3.60
2019-01-10T18:24:34.355Z,4.10
2019-01-10T18:25:34.382Z,3.40
2019-01-10T18:26:34.275Z,3.50
2019-01-10T18:27:34.253Z,3.30
2019-01-10T18:28:34.154Z,3.80
2019-01-10T18:29:34.119Z,3.90
2019-01-10T18:30:34.099Z,4.20
2019-01-10T18:31:34.077Z,4.10
2019-01-10T18:32:33.985Z,4.10
2019-01-10T18:33:33.941Z,3.80
2019-01-10T18:34:33.971Z,4.00
2019-01-10T18:35:33.907Z,4.10
2019-01-10T18:36:33.793Z,4.60
2019-01-10T18:37:33.862Z,4.10
2019-01-10T18:38:33.694Z,4.50
2019-01-10T18:39:33.646Z,4.50
2019-01-10T18:40:33.598Z,4.00
2019-01-10T18:41:33.551Z,4.80
2019-01-10T18:42:33.572Z,4.10
2019-01-10T18:43:33.466Z,4.40
2019-01-10T18:44:33.441Z,4.10
2019-01-10T18:45:33.404Z,4.80
2019-01-10T18:46:33.383Z,4.30
2019-01-10T18:47:33.269Z,4.10
2019-01-10T18:48:39.593Z,4.30
2019-01-10T18:49:33.248Z,4.50
2019-01-10T18:50:33.132Z,4.90
2019-01-10T18:51:33.103Z,4.70
2019-01-10T18:52:33.054Z,5.30
2019-01-10T18:53:33.018Z,4.90
2019-01-10T18:54:32.937Z,4.90
2019-01-10T18:55:32.917Z,5.10
2019-01-10T18:56:32.863Z,4.80
2019-01-10T18:57:33.245Z,4.70
2019-01-10T18:58:32.766Z,4.50
2019-01-10T18:59:32.730Z,5.00
2019-01-10T19:00:32.673Z,5.60
2019-01-10T19:01:32.654Z,4.50
2019-01-10T19:02:32.675Z,5.80
2019-01-10T19:03:32.555Z,5.40
2019-01-10T19:04:32.485Z,5.80
2019-01-10T19:05:32.449Z,5.10
2019-01-10T19:06:32.422Z,4.50
2019-01-10T19:07:32.369Z,4.90
2019-01-10T19:08:32.296Z,4.90
2019-01-10T19:09:32.259Z,4.60
2019-01-10T19:10:32.233Z,5.90
2019-01-10T19:11:32.163Z,5.50
2019-01-10T19:12:32.108Z,5.60
2019-01-10T19:13:32.062Z,6.20
2019-01-10T19:14:32.026Z,5.10
2019-01-10T19:15:31.990Z,4.50
2019-01-10T19:16:31.927Z,5.20
2019-01-10T19:17:31.885Z,4.80
2019-01-10T19:18:31.833Z,4.80
2019-01-10T19:19:31.787Z,4.80
2019-01-10T19:20:31.751Z,5.80
2019-01-10T19:21:31.692Z,5.90
2019-01-10T19:22:31.645Z,6.30
2019-01-10T19:23:31.614Z,5.90
2019-01-10T19:24:31.581Z,5.20
2019-01-10T19:25:31.536Z,4.20
2019-01-10T19:26:33.345Z,4.80
2019-01-10T19:27:31.413Z,4.60
2019-01-10T19:28:31.384Z,4.20
2019-01-10T19:29:31.321Z,4.90
2019-01-10T19:30:31.293Z,6.00
2019-01-10T19:31:31.245Z,6.00
2019-01-10T19:32:31.177Z,5.40
2019-01-10T19:33:31.165Z,4.00
2019-01-10T19:34:31.095Z,4.80
2019-01-10T19:35:31.056Z,5.30
2019-01-10T19:36:31.000Z,5.30
2019-01-10T19:37:30.998Z,4.90
2019-01-10T19:38:30.889Z,5.50
2019-01-10T19:39:30.884Z,6.30
2019-01-10T19:40:30.806Z,7.20
2019-01-10T19:41:30.765Z,7.60
2019-01-10T19:42:30.715Z,6.90
2019-01-10T19:43:30.664Z,6.30
2019-01-10T19:44:30.641Z,6.90
2019-01-10T19:45:30.601Z,6.60
2019-01-10T19:46:30.734Z,6.30
2019-01-10T19:47:30.488Z,6.60
2019-01-10T19:48:30.442Z,7.00
2019-01-10T19:49:30.390Z,5.80
2019-01-10T19:50:30.350Z,6.20
2019-01-10T19:51:30.285Z,6.70
2019-01-10T19:52:30.286Z,7.50
2019-01-10T19:53:30.183Z,7.50
2019-01-10T19:54:30.146Z,9.20
2019-01-10T19:55:30.101Z,10.30
2019-01-10T19:56:30.069Z,8.50
2019-01-10T19:57:30.021Z,9.00
2019-01-10T19:58:29.960Z,8.20
2019-01-10T19:59:29.911Z,7.60
2019-01-10T20:00:29.892Z,7.40
2019-01-10T20:01:29.816Z,6.60
2019-01-10T20:02:29.777Z,6.80
2019-01-10T20:03:29.727Z,6.70
2019-01-10T20:04:29.690Z,6.70
2019-01-10T20:05:29.659Z,6.10
2019-01-10T20:06:29.623Z,6.40
2019-01-10T20:07:29.560Z,6.20
2019-01-10T20:08:29.500Z,6.20
2019-01-10T20:09:30.068Z,6.80
2019-01-10T20:10:29.398Z,6.50
2019-01-10T20:11:29.391Z,7.30
2019-01-10T20:12:29.328Z,6.60
2019-01-10T20:13:29.290Z,7.60
2019-01-10T20:14:29.224Z,6.50
2019-01-10T20:15:29.189Z,6.50
2019-01-10T20:16:29.149Z,7.50
2019-01-10T20:17:29.071Z,7.40
2019-01-10T20:18:29.062Z,7.10
2019-01-10T20:19:30.843Z,7.10
2019-01-10T20:20:28.952Z,7.00
2019-01-10T20:21:28.885Z,6.90
2019-01-10T20:22:28.831Z,6.70
2019-01-10T20:23:28.837Z,7.20
2019-01-10T20:24:28.743Z,8.40
2019-01-10T20:25:28.701Z,7.40
2019-01-10T20:26:28.668Z,9.50
2019-01-10T20:27:28.604Z,7.60
2019-01-10T20:28:28.563Z,7.50
2019-01-10T20:29:28.555Z,6.90
2019-01-10T20:30:28.487Z,7.50
2019-01-10T20:31:28.411Z,9.80
2019-01-10T20:32:28.395Z,11.40
2019-01-10T20:33:28.350Z,12.50
2019-01-10T20:34:28.287Z,11.60
2019-01-10T20:35:28.230Z,10.30
2019-01-10T20:36:28.177Z,9.00
2019-01-10T20:37:28.133Z,10.10
2019-01-10T20:38:28.086Z,9.20
2019-01-10T20:39:28.053Z,9.60
2019-01-10T20:40:28.021Z,9.80
2019-01-10T20:41:27.973Z,10.30
2019-01-10T20:42:27.906Z,6.80
2019-01-10T20:43:27.850Z,5.50
2019-01-10T20:44:27.798Z,5.80
2019-01-10T20:45:27.765Z,5.40
2019-01-10T20:46:27.754Z,6.20
2019-01-10T20:47:27.687Z,6.50
2019-01-10T20:48:27.616Z,6.20
2019-01-10T20:49:27.592Z,6.10
2019-01-10T20:50:27.524Z,6.90
2019-01-10T20:51:27.508Z,6.80
2019-01-10T20:52:27.422Z,6.20
2019-01-10T20:53:27.433Z,6.10
2019-01-10T20:54:27.340Z,5.70
2019-01-10T20:55:27.285Z,6.20
2019-01-10T20:56:27.239Z,6.50
2019-01-10T20:57:27.201Z,6.20
2019-01-10T20:58:27.151Z,6.40
2019-01-10T20:59:27.122Z,7.20
2019-01-10T21:00:27.118Z,6.50
2019-01-10T21:01:27.019Z,7.00
2019-01-10T21:02:27.032Z,7.00
2019-01-10T21:03:26.968Z,6.60
2019-01-10T21:04:27.758Z,6.00
2019-01-10T21:05:26.829Z,6.60
2019-01-10T21:06:26.766Z,7.20
2019-01-10T21:07:26.728Z,7.20
2019-01-10T21:08:26.681Z,6.90
2019-01-10T21:09:26.656Z,6.40
2019-01-10T21:10:26.577Z,7.10
2019-01-10T21:11:26.555Z,7.50
2019-01-10T21:12:26.490Z,8.10
2019-01-10T21:13:26.452Z,7.00
2019-01-10T21:14:26.413Z,7.50
2019-01-10T21:15:26.386Z,7.30
2019-01-10T21:16:26.311Z,7.40
2019-01-10T21:17:26.272Z,7.50
2019-01-10T21:18:28.719Z,6.50
2019-01-10T21:19:26.168Z,6.40
2019-01-10T21:20:26.131Z,7.10
2019-01-10T21:21:26.079Z,6.90
2019-01-10T21:22:26.009Z,8.00
2019-01-10T21:23:26.001Z,8.10
2019-01-10T21:24:25.929Z,8.90
2019-01-10T21:25:25.910Z,8.90
2019-01-10T21:26:25.827Z,8.40
2019-01-10T21:27:25.800Z,8.80
2019-01-10T21:28:25.730Z,9.00
2019-01-10T21:29:25.689Z,8.20
2019-01-10T21:30:25.639Z,7.50
2019-01-10T21:31:25.609Z,7.90
2019-01-10T21:32:25.597Z,8.40
2019-01-10T21:33:25.498Z,7.80
2019-01-10T21:34:25.527Z,8.70
2019-01-10T21:35:25.418Z,9.70
2019-01-10T21:36:25.364Z,9.90
2019-01-10T21:37:25.345Z,10.60
2019-01-10T21:38:25.313Z,11.40
2019-01-10T21:39:25.271Z,10.10
2019-01-10T21:40:25.168Z,9.10
2019-01-10T21:41:25.173Z,8.90
2019-01-10T21:42:25.076Z,9.30
2019-01-10T21:43:25.113Z,8.80
2019-01-10T21:44:24.999Z,8.90
2019-01-10T21:45:25.031Z,8.10
2019-01-10T21:46:24.952Z,8.50
2019-01-10T21:47:24.876Z,8.60
2019-01-10T21:48:24.813Z,8.50
2019-01-10T21:49:24.744Z,8.80
2019-01-10T21:50:24.720Z,8.50
2019-01-10T21:51:24.674Z,8.70
2019-01-10T21:52:24.603Z,9.20
2019-01-10T21:53:24.556Z,8.00
2019-01-10T21:54:24.609Z,8.20
2019-01-10T21:55:24.470Z,7.40
2019-01-10T21:56:24.465Z,7.40
2019-01-10T21:57:30.325Z,6.30
2019-01-10T21:58:24.314Z,7.50
2019-01-10T21:59:24.273Z,8.70
2019-01-10T22:00:24.227Z,9.10
2019-01-10T22:01:24.183Z,10.60
2019-01-10T22:02:24.196Z,9.30
2019-01-10T22:03:24.247Z,9.20
2019-01-10T22:04:24.045Z,8.90
2019-01-10T22:05:24.013Z,8.70
2019-01-10T22:06:24.071Z,9.10
2019-01-10T22:07:23.925Z,8.50
2019-01-10T22:08:23.861Z,8.50
2019-01-10T22:09:23.799Z,8.10
2019-01-10T22:10:23.757Z,7.80
2019-01-10T22:11:23.707Z,7.10
2019-01-10T22:12:23.733Z,7.80
2019-01-10T22:13:23.630Z,7.60
2019-01-10T22:14:23.568Z,7.20
2019-01-10T22:15:23.543Z,7.20
2019-01-10T22:16:23.496Z,7.30
2019-01-10T22:17:23.546Z,8.00
2019-01-10T22:18:23.381Z,7.00
2019-01-10T22:19:23.333Z,7.20
2019-01-10T22:20:23.286Z,8.10
2019-01-10T22:21:23.270Z,6.80
2019-01-10T22:22:23.223Z,6.70
2019-01-10T22:23:23.156Z,7.40
2019-01-10T22:24:23.098Z,8.20
2019-01-10T22:25:23.036Z,7.80
2019-01-10T22:26:23.050Z,7.50
2019-01-10T22:27:22.937Z,8.00
2019-01-10T22:28:22.924Z,8.00
2019-01-10T22:29:22.868Z,7.80
2019-01-10T22:30:22.807Z,8.00
2019-01-10T22:31:22.807Z,7.80
2019-01-10T22:32:22.726Z,8.30
2019-01-10T22:33:22.737Z,7.10
2019-01-10T22:34:22.640Z,8.20
2019-01-10T22:35:22.563Z,8.20
2019-01-10T22:36:22.526Z,7.00
2019-01-10T22:37:28.794Z,7.00
2019-01-10T22:38:22.483Z,6.80
2019-01-10T22:39:22.459Z,7.80
2019-01-10T22:40:22.333Z,8.50
2019-01-10T22:41:22.278Z,8.80
2019-01-10T22:42:22.267Z,9.00
2019-01-10T22:43:22.217Z,8.40
2019-01-10T22:44:22.134Z,9.20
2019-01-10T22:45:22.092Z,7.90
2019-01-10T22:46:22.060Z,8.50
2019-01-10T22:47:21.987Z,7.80
2019-01-10T22:48:21.947Z,7.80
2019-01-10T22:49:21.919Z,8.20
2019-01-10T22:50:21.854Z,8.20
2019-01-10T22:51:21.822Z,8.50
2019-01-10T22:52:21.751Z,7.60
2019-01-10T22:53:21.735Z,8.50
2019-01-10T22:54:21.693Z,8.00
2019-01-10T22:55:21.630Z,7.80
2019-01-10T22:56:21.592Z,6.30
2019-01-10T22:57:21.535Z,6.30
2019-01-10T22:58:21.482Z,7.00
2019-01-10T22:59:21.444Z,6.60
2019-01-10T23:00:21.429Z,7.60
2019-01-10T23:01:21.339Z,7.20
2019-01-10T23:02:21.311Z,7.20
2019-01-10T23:03:21.250Z,7.10
2019-01-10T23:04:21.186Z,7.90
2019-01-10T23:05:21.201Z,7.60
2019-01-10T23:06:21.088Z,7.30
2019-01-10T23:07:21.042Z,7.50
2019-01-10T23:08:21.012Z,7.20
2019-01-10T23:09:20.977Z,7.00
2019-01-10T23:10:20.943Z,6.70
2019-01-10T23:11:20.854Z,6.40
2019-01-10T23:12:20.813Z,6.60
2019-01-10T23:13:20.773Z,6.70
2019-01-10T23:14:20.713Z,6.10
2019-01-10T23:15:20.664Z,7.10
2019-01-10T23:16:20.656Z,7.80
2019-01-10T23:17:20.601Z,8.10
2019-01-10T23:18:20.569Z,6.90
2019-01-10T23:19:20.481Z,7.20
2019-01-10T23:20:20.441Z,6.90
2019-01-10T23:21:20.407Z,7.10
2019-01-10T23:22:20.344Z,7.50
2019-01-10T23:23:20.290Z,7.20
2019-01-10T23:24:26.490Z,7.70
2019-01-10T23:25:20.219Z,7.40
2019-01-10T23:26:20.129Z,7.50
2019-01-10T23:27:20.126Z,7.00
2019-01-10T23:28:20.045Z,6.70
2019-01-10T23:29:20.064Z,6.20
2019-01-10T23:30:19.948Z,7.80
2019-01-10T23:31:19.895Z,7.20
2019-01-10T23:32:19.865Z,8.40
2019-01-10T23:33:19.846Z,8.00
2019-01-10T23:34:19.824Z,8.30
2019-01-10T23:35:19.710Z,9.90
2019-01-10T23:36:19.669Z,7.90
2019-01-10T23:37:19.637Z,9.10
2019-01-10T23:38:19.592Z,9.70
2019-01-10T23:39:19.515Z,8.30
2019-01-10T23:40:19.471Z,8.80
2019-01-10T23:41:19.430Z,9.30
2019-01-10T23:42:19.404Z,8.80
2019-01-10T23:43:19.324Z,8.80
2019-01-10T23:44:19.296Z,8.70
2019-01-10T23:45:19.227Z,8.70
2019-01-10T23:46:19.200Z,8.90
2019-01-10T23:47:19.195Z,8.20
2019-01-10T23:48:19.130Z,9.20
2019-01-10T23:49:19.088Z,8.50
2019-01-10T23:50:19.036Z,9.00
2019-01-10T23:51:18.948Z,8.60
2019-01-10T23:52:18.916Z,8.50
2019-01-10T23:53:19.010Z,8.50
2019-01-10T23:54:18.850Z,8.00
2019-01-10T23:55:18.793Z,8.90
2019-01-10T23:56:18.731Z,9.30
2019-01-10T23:57:18.683Z,10.40
2019-01-10T23:58:18.761Z,9.00
